Terminal Aerodrome Forecast
Issued by NWS

Home | Current Version | Previous Version | Text Only | Print | Product List | Glossary On
Versions: 1 2 3 4 5 6 7 8 9 10 11 12 13 14
920
FTUS41 KBTV 060531
TAFMSS
TAF
KMSS 060531Z 0606/0706 04005KT P6SM SKC
     FM061400 03010KT P6SM SKC
     FM062300 05004KT P6SM BKN070=

USA.gov is the U.S. government's official web portal to all federal, state and local government web resources and services.